TimeMST,TemperatureF,Dew PointF,Humidity,Sea Level PressureIn,VisibilityMPH,Wind Direction,Wind SpeedMPH,Gust SpeedMPH,PrecipitationIn,Events,Conditions,WindDirDegrees,DateUTC
12:53 AM,10.0,3.9,76,30.08,10.0,WSW,9.2,-,N/A,,Clear,240,2012-12-26 07:53:00
1:53 AM,12.9,6.1,74,30.04,10.0,SW,10.4,-,N/A,,Clear,230,2012-12-26 08:53:00
2:53 AM,17.1,8.1,68,30.00,10.0,North,-9999.0,-,N/A,,Clear,0,2012-12-26 09:53:00
3:53 AM,19.0,10.0,68,29.96,10.0,SW,12.7,-,N/A,,Overcast,220,2012-12-26 10:53:00
4:53 AM,19.0,10.0,68,29.94,10.0,WSW,11.5,-,N/A,,Overcast,240,2012-12-26 11:53:00
5:53 AM,24.1,12.0,60,29.91,10.0,SW,12.7,-,N/A,,Overcast,220,2012-12-26 12:53:00
6:53 AM,25.0,12.9,60,29.90,10.0,SW,11.5,-,N/A,,Overcast,220,2012-12-26 13:53:00
7:53 AM,18.0,9.0,68,29.92,10.0,SSW,10.4,-,N/A,,Overcast,210,2012-12-26 14:53:00
8:53 AM,26.1,12.9,58,29.84,10.0,SW,13.8,-,N/A,,Mostly Cloudy,230,2012-12-26 15:53:00
9:53 AM,27.0,12.9,56,29.84,10.0,SW,17.3,26.5,N/A,,Clear,220,2012-12-26 16:53:00
10:53 AM,28.0,15.1,58,29.84,10.0,SW,21.9,28.8,N/A,,Mostly Cloudy,220,2012-12-26 17:53:00
11:53 AM,28.0,16.0,61,29.80,10.0,SW,15.0,-,N/A,,Mostly Cloudy,230,2012-12-26 18:53:00
12:34 PM,26.6,19.4,74,29.64,1.8,SW,20.7,28.8,0.00,Snow,Light Snow,230,2012-12-26 19:34:00
12:45 PM,24.8,19.4,80,29.63,0.8,SW,19.6,28.8,0.00,Snow,Light Snow,230,2012-12-26 19:45:00
12:53 PM,25.0,19.9,81,29.78,0.8,SW,15.0,27.6,0.00,Snow,Light Snow,230,2012-12-26 19:53:00
1:28 PM,24.8,21.2,86,29.62,1.0,SW,16.1,-,0.01,Snow,Light Snow,220,2012-12-26 20:28:00
1:39 PM,24.8,21.2,86,29.61,0.5,SW,19.6,24.2,0.02,Fog-Snow,Snow,230,2012-12-26 20:39:00
1:53 PM,25.0,21.0,85,29.75,0.8,SW,15.0,-,0.02,Snow,Light Snow,230,2012-12-26 20:53:00
2:22 PM,24.8,21.2,86,29.60,1.0,WSW,10.4,-,0.01,Snow,Light Snow,240,2012-12-26 21:22:00
2:53 PM,24.1,21.0,88,29.72,1.0,SW,6.9,-,0.02,Snow,Light Snow,230,2012-12-26 21:53:00
3:21 PM,24.8,21.2,86,29.59,3.0,SW,4.6,-,0.00,Snow,Light Snow,230,2012-12-26 22:21:00
3:53 PM,25.0,19.9,81,29.71,5.0,SSW,5.8,-,0.00,,Haze,210,2012-12-26 22:53:00
4:53 PM,23.0,19.4,86,29.59,4.0,SE,5.8,-,N/A,Snow,Light Snow,130,2012-12-26 23:53:00
5:08 PM,21.2,19.4,93,29.59,2.5,East,4.6,-,0.00,Snow,Light Snow,100,2012-12-27 00:08:00
5:43 PM,21.2,19.4,93,29.59,1.2,ESE,3.5,-,0.01,Snow,Light Snow,110,2012-12-27 00:43:00
5:53 PM,21.0,18.0,88,29.70,1.2,East,4.6,-,0.01,Snow,Light Snow,90,2012-12-27 00:53:00
6:53 PM,21.0,18.0,88,29.70,1.0,East,4.6,-,0.02,Snow,Light Snow,100,2012-12-27 01:53:00
7:53 PM,21.0,18.0,88,29.71,1.8,ESE,4.6,-,0.01,Snow,Light Snow,110,2012-12-27 02:53:00
8:25 PM,21.2,19.4,93,29.58,2.0,Variable,3.5,-,0.00,Snow,Light Snow,0,2012-12-27 03:25:00
8:28 PM,21.2,17.6,86,29.58,1.8,NNW,6.9,-,0.00,Snow,Light Snow,330,2012-12-27 03:28:00
8:53 PM,18.0,14.0,84,29.71,2.0,NNW,9.2,-,0.01,Snow,Light Snow,330,2012-12-27 03:53:00
9:02 PM,17.6,14.0,86,29.59,2.0,NNW,8.1,-,0.00,Snow,Light Snow,340,2012-12-27 04:02:00
9:16 PM,17.6,12.2,79,29.59,3.0,NNW,9.2,-,0.00,Snow,Light Snow,330,2012-12-27 04:16:00
9:32 PM,17.6,12.2,79,29.59,2.5,NNW,8.1,-,0.00,Snow,Light Snow,340,2012-12-27 04:32:00
9:53 PM,16.0,12.0,84,29.71,1.8,North,9.2,-,0.01,Snow,Light Snow,350,2012-12-27 04:53:00
10:53 PM,15.1,12.0,88,29.73,1.8,NW,6.9,-,0.01,Snow,Light Snow,310,2012-12-27 05:53:00
11:31 PM,15.8,10.4,79,29.62,2.5,NW,4.6,-,0.00,Snow,Light Snow,320,2012-12-27 06:31:00
11:53 PM,15.1,10.9,84,29.75,1.8,WNW,5.8,-,0.01,Snow,Light Snow,300,2012-12-27 06:53:00